Time;durP1;ratioP1;P1;durP2;ratioP2;P2;SDS_P1;SDS_P2;PMS_P1;PMS_P2;Temp;Humidity;BMP_temperature;BMP_pressure;BME280_temperature;BME280_humidity;BME280_pressure;Samples;Min_cycle;Max_cycle;Signal;HPM_P1;HPM_P2
2022/12/11 00:01:18;;;;;;;88.45;27.33;;;1.50;99.90;;;;;;5019648;28;20026;-91
2022/12/11 00:03:43;;;;;;;85.82;28.42;;;1.50;99.90;;;;;;5019685;28;20040;-90
2022/12/11 00:06:12;;;;;;;88.45;26.70;;;1.50;99.90;;;;;;5020447;28;20034;-96
2022/12/11 00:08:38;;;;;;;86.00;27.25;;;1.50;99.90;;;;;;5017866;28;20019;-91
2022/12/11 00:11:08;;;;;;;84.22;27.63;;;1.50;99.90;;;;;;5017937;28;20032;-90
2022/12/11 00:13:34;;;;;;;81.05;27.63;;;1.50;99.90;;;;;;5018331;28;20042;-93
2022/12/11 00:16:00;;;;;;;85.28;28.15;;;1.50;99.90;;;;;;5017412;28;20044;-93
2022/12/11 00:18:25;;;;;;;97.68;30.98;;;1.50;99.90;;;;;;5016554;28;20069;-91
2022/12/11 00:20:51;;;;;;;85.25;26.95;;;1.50;99.90;;;;;;5017255;28;20046;-91
2022/12/11 00:23:17;;;;;;;86.47;26.98;;;1.50;99.90;;;;;;5010509;28;20038;-93
2022/12/11 00:25:45;;;;;;;87.70;27.02;;;1.50;99.90;;;;;;5007576;28;20423;-94
2022/12/11 00:28:14;;;;;;;75.68;26.58;;;1.50;99.90;;;;;;5006896;28;20022;-94
2022/12/11 00:30:41;;;;;;;82.78;27.83;;;1.50;99.90;;;;;;5006065;28;20026;-95
2022/12/11 00:33:08;;;;;;;85.50;27.15;;;1.50;99.90;;;;;;5005282;28;20034;-94
2022/12/11 00:35:37;;;;;;;98.53;28.27;;;1.50;99.90;;;;;;5010290;28;20026;-93
2022/12/11 00:38:03;;;;;;;73.57;24.43;;;1.50;99.90;;;;;;5004890;28;20030;-93
2022/12/11 00:40:29;;;;;;;78.88;25.98;;;1.50;99.90;;;;;;5002497;28;20137;-95
2022/12/11 00:42:54;;;;;;;95.78;28.23;;;1.50;99.90;;;;;;5001282;28;20022;-94
2022/12/11 00:45:20;;;;;;;88.53;28.75;;;1.50;99.90;;;;;;4998140;28;20030;-94
2022/12/11 00:47:46;;;;;;;75.25;25.75;;;1.40;99.90;;;;;;4997441;28;20056;-94
2022/12/11 00:50:12;;;;;;;85.38;26.67;;;1.40;99.90;;;;;;4998267;28;20037;-95
2022/12/11 00:52:39;;;;;;;79.10;26.10;;;1.40;99.90;;;;;;5001221;28;20042;-94
2022/12/11 00:55:05;;;;;;;83.78;26.30;;;1.40;99.90;;;;;;5008254;28;20022;-93
2022/12/11 00:57:31;;;;;;;87.85;27.58;;;1.40;99.90;;;;;;5008457;28;20030;-95
2022/12/11 00:59:56;;;;;;;84.22;27.70;;;1.40;99.90;;;;;;5007759;28;20027;-95
2022/12/11 01:02:22;;;;;;;89.22;27.98;;;1.40;99.90;;;;;;5008127;28;20035;-96
2022/12/11 01:04:48;;;;;;;82.32;28.45;;;1.40;99.90;;;;;;5003771;28;20027;-95
2022/12/11 01:07:13;;;;;;;92.20;27.70;;;1.40;99.90;;;;;;5000224;28;20042;-94
2022/12/11 01:12:23;;;;;;;79.13;25.88;;;1.40;99.90;;;;;;5001969;28;20048;-94
2022/12/11 01:14:49;;;;;;;75.93;26.02;;;1.40;99.90;;;;;;5001494;28;20090;-95
2022/12/11 01:17:15;;;;;;;83.25;27.10;;;1.40;99.90;;;;;;5000672;28;20047;-93
2022/12/11 01:19:41;;;;;;;83.20;25.95;;;1.40;99.90;;;;;;5004088;28;20022;-92
2022/12/11 01:22:06;;;;;;;90.70;28.23;;;1.40;99.90;;;;;;5006588;28;20061;-95
2022/12/11 01:24:32;;;;;;;94.78;29.30;;;1.40;99.90;;;;;;5006873;28;20066;-94
2022/12/11 01:26:58;;;;;;;93.32;28.67;;;1.40;99.90;;;;;;5004291;28;20022;-95
2022/12/11 01:29:24;;;;;;;103.20;29.98;;;1.30;99.90;;;;;;5000167;28;20515;-95
2022/12/11 01:31:49;;;;;;;90.10;29.95;;;1.40;99.90;;;;;;4998435;28;20098;-96
2022/12/11 01:34:15;;;;;;;93.47;29.67;;;1.40;99.90;;;;;;4997353;28;20042;-95
2022/12/11 01:36:40;;;;;;;96.10;29.23;;;1.40;99.90;;;;;;4996773;28;20038;-96
2022/12/11 01:39:06;;;;;;;104.40;31.88;;;1.40;99.90;;;;;;4995263;28;20030;-96
2022/12/11 01:41:32;;;;;;;95.07;31.02;;;1.40;99.90;;;;;;5000617;28;20035;-94
2022/12/11 01:44:22;;;;;;;88.10;27.52;;;1.40;99.90;;;;;;4996079;28;20026;-95
2022/12/11 01:46:48;;;;;;;88.85;27.35;;;1.30;99.90;;;;;;4958972;28;20066;-96
2022/12/11 01:49:17;;;;;;;84.43;26.48;;;1.30;99.90;;;;;;4957504;28;20519;-93
2022/12/11 01:51:57;;;;;;;85.25;28.20;;;1.40;99.90;;;;;;4955931;28;20126;-93
2022/12/11 01:54:24;;;;;;;92.65;26.65;;;1.30;99.90;;;;;;4959860;28;20087;-93
2022/12/11 01:56:53;;;;;;;82.60;27.45;;;1.30;99.90;;;;;;4955947;28;20034;-93
2022/12/11 01:59:23;;;;;;;89.05;27.50;;;1.30;99.90;;;;;;4956381;28;20027;-92
2022/12/11 02:01:58;;;;;;;78.38;26.35;;;1.20;99.90;;;;;;4960836;28;20034;-95
2022/12/11 02:04:24;;;;;;;95.75;28.67;;;1.20;99.90;;;;;;4958313;28;20042;-94
2022/12/11 02:06:51;;;;;;;82.18;26.95;;;1.20;99.90;;;;;;4962866;28;20039;-94
2022/12/11 02:09:28;;;;;;;85.28;27.10;;;1.20;99.90;;;;;;4957116;29;20041;-95
2022/12/11 02:12:05;;;;;;;75.20;24.70;;;1.20;99.90;;;;;;4946161;29;20055;-94
2022/12/11 02:15:01;;;;;;;79.70;25.25;;;1.20;99.90;;;;;;4942707;29;20091;-94
2022/12/11 02:17:55;;;;;;;78.47;25.10;;;1.20;99.90;;;;;;4942892;29;20153;-95
2022/12/11 02:20:26;;;;;;;82.32;25.63;;;1.20;99.90;;;;;;4940355;29;20544;-93
2022/12/11 02:23:11;;;;;;;82.13;27.55;;;1.20;99.90;;;;;;4943803;28;20038;-95
2022/12/11 02:25:42;;;;;;;79.35;26.70;;;1.20;99.90;;;;;;5001521;28;20023;-95
2022/12/11 02:28:23;;;;;;;76.28;25.08;;;1.20;99.90;;;;;;4997863;28;20026;-93
2022/12/11 02:30:56;;;;;;;78.60;26.95;;;1.20;99.90;;;;;;5001136;28;20514;-94
2022/12/11 02:33:41;;;;;;;74.03;26.92;;;1.20;99.90;;;;;;4999226;28;20137;-95
2022/12/11 02:36:09;;;;;;;73.90;24.60;;;1.20;99.90;;;;;;4999924;28;20054;-92
2022/12/11 02:38:40;;;;;;;84.97;27.00;;;1.20;99.90;;;;;;4998887;28;20026;-95
2022/12/11 02:41:07;;;;;;;;;;;1.20;99.90;;;;;;4997130;28;20080;-94
2022/12/11 02:43:35;;;;;;;78.90;24.92;;;1.20;99.90;;;;;;4995232;28;20397;-95
2022/12/11 02:46:04;;;;;;;72.63;24.20;;;1.30;99.90;;;;;;4995502;28;20030;-93
2022/12/11 02:48:32;;;;;;;62.15;23.05;;;1.20;99.90;;;;;;4993620;28;20031;-95
2022/12/11 02:50:59;;;;;;;58.47;21.92;;;1.30;99.90;;;;;;4994622;28;20041;-94
2022/12/11 02:53:28;;;;;;;60.53;21.90;;;1.30;99.90;;;;;;4993801;28;20558;-94
2022/12/11 02:56:02;;;;;;;50.08;19.35;;;1.30;99.90;;;;;;4993698;28;20030;-93
2022/12/11 02:58:31;;;;;;;47.55;19.10;;;1.30;99.90;;;;;;4993597;28;20026;-93
2022/12/11 03:00:57;;;;;;;55.95;20.75;;;1.30;99.90;;;;;;4993231;28;20018;-93
2022/12/11 03:03:22;;;;;;;60.67;22.25;;;1.30;99.90;;;;;;4993481;28;20089;-94
2022/12/11 03:05:48;;;;;;;31.30;13.63;;;1.30;99.90;;;;;;4992533;28;20492;-93
2022/12/11 03:08:16;;;;;;;56.97;21.42;;;1.30;99.90;;;;;;4992948;28;20117;-92
2022/12/11 03:10:42;;;;;;;69.97;22.63;;;1.30;99.90;;;;;;4992453;28;20084;-95
2022/12/11 03:13:08;;;;;;;51.35;19.92;;;1.30;99.90;;;;;;4992476;28;20042;-93
2022/12/11 03:16:03;;;;;;;52.92;20.52;;;1.30;99.90;;;;;;4992671;28;20038;-92
2022/12/11 03:18:40;;;;;;;49.00;18.48;;;1.30;99.90;;;;;;4974951;28;20046;-90
2022/12/11 03:21:15;;;;;;;39.80;15.63;;;1.30;99.90;;;;;;4992693;28;20085;-96
2022/12/11 03:24:20;;;;;;;40.55;16.55;;;1.20;99.90;;;;;;4996265;28;20310;-93
2022/12/11 03:26:55;;;;;;;32.42;14.18;;;1.20;99.90;;;;;;4989068;28;20038;-93
2022/12/11 03:29:28;;;;;;;25.05;11.32;;;1.20;99.90;;;;;;4996108;28;20476;-94
2022/12/11 03:32:06;;;;;;;28.58;13.02;;;1.20;99.90;;;;;;4996225;28;20125;-94
2022/12/11 03:34:45;;;;;;;28.73;12.80;;;1.20;99.90;;;;;;4995970;28;20039;-92
2022/12/11 03:37:14;;;;;;;23.55;12.05;;;1.20;99.90;;;;;;4996007;28;20124;-93
2022/12/11 03:39:46;;;;;;;26.45;12.00;;;1.20;99.90;;;;;;4995793;28;20121;-93
2022/12/11 03:42:14;;;;;;;30.58;13.30;;;1.20;99.90;;;;;;4995810;28;20026;-94
2022/12/11 03:44:44;;;;;;;27.63;11.90;;;1.20;99.90;;;;;;4995538;28;20205;-93
2022/12/11 03:47:13;;;;;;;27.52;12.05;;;1.20;99.90;;;;;;4995855;28;20479;-93
2022/12/11 03:49:42;;;;;;;24.13;10.80;;;1.20;99.90;;;;;;4995719;28;20077;-92
2022/12/11 03:52:11;;;;;;;25.23;11.63;;;1.20;99.90;;;;;;4995808;28;20030;-92
2022/12/11 03:54:39;;;;;;;22.88;11.02;;;1.20;99.90;;;;;;4998895;28;20058;-92
2022/12/11 03:57:08;;;;;;;23.52;10.95;;;1.20;99.90;;;;;;5006969;28;20030;-92
2022/12/11 03:59:34;;;;;;;24.10;11.45;;;1.20;99.90;;;;;;5005374;28;20049;-92
2022/12/11 04:02:00;;;;;;;21.48;11.13;;;1.20;99.90;;;;;;5002726;28;20034;-93
2022/12/11 04:04:26;;;;;;;21.02;10.27;;;1.20;99.90;;;;;;5001987;28;20064;-94
2022/12/11 04:06:51;;;;;;;23.95;10.88;;;1.20;99.90;;;;;;4999235;28;20060;-93
2022/12/11 04:09:17;;;;;;;18.48;9.02;;;1.10;99.90;;;;;;4998288;28;20026;-94
2022/12/11 04:11:43;;;;;;;21.60;9.98;;;1.10;99.90;;;;;;4997461;28;20600;-94
2022/12/11 04:16:59;;;;;;;22.33;10.20;;;1.10;99.90;;;;;;4997475;28;20045;-94
2022/12/11 04:24:55;;;;;;;22.33;10.52;;;1.10;99.90;;;;;;4996958;28;20533;-93
2022/12/11 04:30:10;;;;;;;26.73;12.43;;;1.10;99.90;;;;;;4996643;28;20096;-93
2022/12/11 04:32:36;;;;;;;29.52;13.55;;;1.10;99.90;;;;;;4994996;28;20037;-93
2022/12/11 04:35:01;;;;;;;29.85;12.50;;;1.00;99.90;;;;;;4995143;28;20082;-93
2022/12/11 04:37:27;;;;;;;32.20;13.60;;;1.00;99.90;;;;;;4996394;28;20030;-94
2022/12/11 04:39:53;;;;;;;36.13;14.88;;;1.00;99.90;;;;;;4995782;28;20034;-95
2022/12/11 04:42:19;;;;;;;30.42;13.27;;;1.00;99.90;;;;;;4996114;28;20026;-93
2022/12/11 04:44:44;;;;;;;32.60;14.38;;;1.00;99.90;;;;;;4995923;28;20018;-95
2022/12/11 04:47:10;;;;;;;33.80;13.82;;;1.00;99.90;;;;;;4996169;28;20065;-94
2022/12/11 04:49:36;;;;;;;33.35;13.90;;;1.00;99.90;;;;;;4995588;28;20092;-95
2022/12/11 04:52:02;;;;;;;31.35;12.98;;;1.00;99.90;;;;;;4994691;28;20038;-94
2022/12/11 04:54:29;;;;;;;32.28;14.18;;;1.00;99.90;;;;;;4994867;28;20096;-93
2022/12/11 04:56:55;;;;;;;33.38;14.52;;;1.00;99.90;;;;;;4995023;28;20023;-95
2022/12/11 04:59:20;;;;;;;31.45;13.70;;;1.00;99.90;;;;;;4995502;28;20077;-93
2022/12/11 05:01:46;;;;;;;29.75;13.13;;;1.00;99.90;;;;;;4994868;28;20483;-93
2022/12/11 05:04:12;;;;;;;31.75;14.10;;;1.00;99.90;;;;;;4996175;28;20033;-95
2022/12/11 05:06:38;;;;;;;32.55;14.43;;;0.90;99.90;;;;;;4993488;28;20560;-94
2022/12/11 05:09:03;;;;;;;34.40;14.18;;;0.90;99.90;;;;;;4994612;28;20164;-94
2022/12/11 05:11:29;;;;;;;41.47;16.33;;;1.00;99.90;;;;;;4994786;28;20503;-95
2022/12/11 05:13:55;;;;;;;39.17;15.35;;;1.00;99.90;;;;;;4994580;28;20480;-95
2022/12/11 05:16:20;;;;;;;34.95;15.13;;;1.00;99.90;;;;;;4994483;28;20555;-95
2022/12/11 05:18:46;;;;;;;40.15;16.50;;;1.00;99.90;;;;;;4994595;28;20062;-95
2022/12/11 05:21:13;;;;;;;38.92;17.10;;;1.00;99.90;;;;;;4995803;28;20031;-95
2022/12/11 05:23:40;;;;;;;36.92;15.30;;;1.00;99.90;;;;;;4995540;28;20042;-94
2022/12/11 05:26:09;;;;;;;35.92;14.57;;;1.00;99.90;;;;;;4995321;28;20464;-96
2022/12/11 05:28:37;;;;;;;37.05;14.68;;;1.00;99.90;;;;;;4994758;28;20387;-96
2022/12/11 05:31:13;;;;;;;41.22;16.85;;;1.00;99.90;;;;;;4995158;28;20023;-92
2022/12/11 05:33:38;;;;;;;45.53;17.15;;;1.00;99.90;;;;;;4994396;28;20045;-94
2022/12/11 05:36:05;;;;;;;43.30;16.42;;;1.00;99.90;;;;;;4994899;28;20078;-94
2022/12/11 05:38:31;;;;;;;47.05;17.55;;;1.00;99.90;;;;;;4995464;28;20041;-93
2022/12/11 05:40:58;;;;;;;56.08;20.08;;;1.00;99.90;;;;;;4996120;28;20026;-95
2022/12/11 05:43:26;;;;;;;40.28;15.65;;;1.00;99.90;;;;;;4994604;28;20026;-94
2022/12/11 05:45:51;;;;;;;45.67;16.88;;;1.00;99.90;;;;;;4995268;28;20117;-94
2022/12/11 05:48:17;;;;;;;48.85;18.27;;;0.90;99.90;;;;;;4997523;28;20105;-95
2022/12/11 05:50:43;;;;;;;43.70;16.77;;;0.90;99.90;;;;;;4999615;28;20030;-95
2022/12/11 05:53:08;;;;;;;51.03;17.35;;;0.90;99.90;;;;;;4996894;28;20125;-94
2022/12/11 05:55:34;;;;;;;37.78;14.50;;;0.90;99.90;;;;;;4995794;28;20022;-95
2022/12/11 05:58:00;;;;;;;49.20;19.60;;;1.00;99.90;;;;;;4993745;28;20078;-95
2022/12/11 06:00:26;;;;;;;48.05;17.23;;;0.90;99.90;;;;;;4994713;28;20029;-95
2022/12/11 06:02:51;;;;;;;47.03;17.73;;;0.90;99.90;;;;;;4994382;28;20022;-94
2022/12/11 06:05:17;;;;;;;48.78;18.38;;;0.90;99.90;;;;;;4994315;28;20089;-95
2022/12/11 06:07:42;;;;;;;46.13;17.20;;;0.90;99.90;;;;;;4992744;28;20373;-92
2022/12/11 06:10:08;;;;;;;49.00;18.58;;;0.90;99.90;;;;;;4994108;28;20480;-94
2022/12/11 06:12:35;;;;;;;49.85;18.15;;;0.90;99.90;;;;;;4994146;28;20038;-95
2022/12/11 06:15:00;;;;;;;45.83;17.02;;;0.90;99.90;;;;;;4993615;28;20116;-92
2022/12/11 06:17:26;;;;;;;53.58;19.58;;;0.90;99.90;;;;;;4992924;28;20085;-94
2022/12/11 06:19:52;;;;;;;51.25;18.05;;;0.80;99.90;;;;;;4992649;28;20022;-94
2022/12/11 06:22:17;;;;;;;47.70;18.02;;;0.90;99.90;;;;;;4992495;28;20034;-93
2022/12/11 06:24:43;;;;;;;44.53;16.40;;;0.90;99.90;;;;;;4992783;28;20034;-95
2022/12/11 06:27:09;;;;;;;43.33;16.35;;;0.80;99.90;;;;;;4992925;28;20487;-95
2022/12/11 06:29:34;;;;;;;49.08;17.00;;;0.80;99.90;;;;;;4993142;28;20041;-92
2022/12/11 06:32:00;;;;;;;41.83;15.95;;;0.80;99.90;;;;;;4992331;28;20041;-95
2022/12/11 06:34:26;;;;;;;43.95;15.95;;;0.80;99.90;;;;;;4992620;28;20027;-93
2022/12/11 06:36:51;;;;;;;41.92;15.90;;;0.90;99.90;;;;;;4992362;28;20052;-94
2022/12/11 06:39:17;;;;;;;41.15;14.35;;;0.80;99.90;;;;;;4992105;28;20035;-94
2022/12/11 06:41:43;;;;;;;36.85;13.30;;;0.90;99.90;;;;;;4992257;28;20046;-93
2022/12/11 06:44:08;;;;;;;44.10;16.33;;;1.00;99.90;;;;;;4992407;28;20032;-94
2022/12/11 06:46:34;;;;;;;38.05;14.85;;;1.10;99.90;;;;;;4992375;28;20028;-93
2022/12/11 06:49:00;;;;;;;36.35;14.38;;;1.10;99.90;;;;;;4991931;28;20018;-94
2022/12/11 06:51:25;;;;;;;34.38;13.48;;;1.10;99.90;;;;;;4992041;28;20026;-94
2022/12/11 06:53:53;;;;;;;29.55;10.95;;;1.20;99.90;;;;;;4993386;28;20026;-94
2022/12/11 06:56:19;;;;;;;29.98;11.88;;;1.20;99.90;;;;;;4992966;28;20034;-93
2022/12/11 06:58:44;;;;;;;27.40;12.10;;;1.20;99.90;;;;;;4995987;28;20041;-93
2022/12/11 07:01:25;;;;;;;27.15;11.02;;;1.10;99.90;;;;;;4995966;28;20033;-92
2022/12/11 07:03:52;;;;;;;;;;;1.10;99.90;;;;;;4996571;28;20544;-94
2022/12/11 07:06:17;;;;;;;27.23;10.13;;;1.10;99.90;;;;;;4998153;28;19912;-94
2022/12/11 07:08:44;;;;;;;25.27;10.30;;;1.10;99.90;;;;;;5005488;28;20027;-93
2022/12/11 07:11:12;;;;;;;28.20;11.18;;;1.10;99.90;;;;;;5002369;28;20049;-93
2022/12/11 07:13:40;;;;;;;27.33;12.43;;;1.10;99.90;;;;;;5003501;28;20130;-92
2022/12/11 07:16:09;;;;;;;24.77;10.90;;;1.10;99.90;;;;;;5001524;28;20022;-92
2022/12/11 07:18:40;;;;;;;36.22;13.15;;;1.00;99.90;;;;;;4996266;28;20563;-93
2022/12/11 07:21:06;;;;;;;27.60;10.65;;;1.00;99.90;;;;;;4996280;28;20034;-93
2022/12/11 07:23:33;;;;;;;28.23;12.15;;;1.00;99.90;;;;;;4995978;28;20026;-94
2022/12/11 07:26:04;;;;;;;30.25;11.57;;;0.90;99.90;;;;;;4996186;28;20475;-92
2022/12/11 07:28:29;;;;;;;27.88;12.05;;;1.00;99.90;;;;;;4995960;28;20053;-96
2022/12/11 07:30:55;;;;;;;29.80;11.40;;;1.00;99.90;;;;;;4996524;28;20377;-92
2022/12/11 07:33:21;;;;;;;31.20;11.07;;;1.00;99.90;;;;;;4994950;28;20042;-95
2022/12/11 07:35:46;;;;;;;29.88;11.15;;;1.00;99.90;;;;;;4994460;28;20065;-92
2022/12/11 07:38:12;;;;;;;27.58;10.93;;;1.00;99.90;;;;;;4994601;28;20029;-94
2022/12/11 07:40:38;;;;;;;28.35;11.18;;;1.00;99.90;;;;;;4995144;28;20026;-95
2022/12/11 07:43:04;;;;;;;28.73;9.23;;;1.00;99.90;;;;;;4994964;28;20037;-91
2022/12/11 07:45:29;;;;;;;23.35;10.77;;;1.00;99.90;;;;;;4995145;28;20050;-94
2022/12/11 07:47:55;;;;;;;25.98;9.27;;;0.90;99.90;;;;;;4994359;28;20031;-93
2022/12/11 07:50:21;;;;;;;23.60;9.65;;;0.90;99.90;;;;;;4994547;28;20076;-94
2022/12/11 07:52:46;;;;;;;24.48;10.40;;;0.90;99.90;;;;;;4994561;28;20421;-93
2022/12/11 07:55:12;;;;;;;25.92;10.38;;;0.80;99.90;;;;;;4995339;28;20053;-95
2022/12/11 07:57:38;;;;;;;27.13;11.38;;;0.80;99.90;;;;;;4994897;28;20049;-94
2022/12/11 08:00:21;;;;;;;29.77;12.25;;;0.80;99.90;;;;;;4995110;28;20021;-94
2022/12/11 08:02:47;;;;;;;23.23;10.82;;;0.80;99.90;;;;;;4995041;28;20023;-93
2022/12/11 08:05:13;;;;;;;25.42;10.10;;;0.80;99.90;;;;;;4995233;28;20032;-92
2022/12/11 08:07:38;;;;;;;28.02;11.55;;;0.80;99.90;;;;;;4994052;28;20022;-92
2022/12/11 08:10:04;;;;;;;26.95;10.43;;;0.80;99.90;;;;;;4995077;28;20046;-93
2022/12/11 08:12:30;;;;;;;24.73;10.10;;;0.70;99.90;;;;;;4994940;28;20042;-93
2022/12/11 08:14:56;;;;;;;28.13;11.13;;;0.70;99.90;;;;;;4983728;28;20373;-92
2022/12/11 08:17:21;;;;;;;25.02;9.98;;;0.80;99.90;;;;;;4995155;28;20514;-93
2022/12/11 08:19:47;;;;;;;26.33;9.60;;;0.80;99.90;;;;;;4994589;28;20117;-93
2022/12/11 08:22:13;;;;;;;18.95;8.70;;;0.70;99.90;;;;;;4996305;28;20030;-94
2022/12/11 08:24:39;;;;;;;20.02;8.88;;;0.80;99.90;;;;;;4995363;28;20041;-90
2022/12/11 08:27:05;;;;;;;16.23;7.00;;;0.70;99.90;;;;;;4994405;28;20022;-91
2022/12/11 08:29:31;;;;;;;23.30;8.60;;;0.70;99.90;;;;;;4994418;28;20038;-94
2022/12/11 08:31:56;;;;;;;21.80;9.77;;;0.70;99.90;;;;;;4994438;28;20033;-93
2022/12/11 08:34:22;;;;;;;18.83;9.18;;;0.70;99.90;;;;;;4994688;28;20480;-92
2022/12/11 08:36:48;;;;;;;20.02;8.98;;;0.70;99.90;;;;;;4994070;28;20026;-92
2022/12/11 08:39:13;;;;;;;18.92;7.82;;;0.70;99.90;;;;;;4992537;28;20045;-91
2022/12/11 08:41:40;;;;;;;14.93;7.25;;;0.80;99.90;;;;;;4993167;28;20026;-89
2022/12/11 08:44:11;;;;;;;19.88;7.60;;;0.70;99.90;;;;;;4993340;28;20018;-93
2022/12/11 08:46:37;;;;;;;17.95;8.13;;;0.80;99.90;;;;;;4993718;28;20544;-92
2022/12/11 08:49:06;;;;;;;14.50;7.13;;;0.70;99.90;;;;;;4993593;28;20118;-96
2022/12/11 08:51:34;;;;;;;15.88;7.63;;;0.70;99.90;;;;;;4994045;28;20492;-95
2022/12/11 08:54:00;;;;;;;19.70;8.23;;;0.70;99.90;;;;;;4993386;28;20034;-92
2022/12/11 08:56:28;;;;;;;17.27;7.45;;;0.70;99.90;;;;;;4992332;28;20037;-92
2022/12/11 08:58:54;;;;;;;19.05;8.45;;;0.70;99.90;;;;;;4992639;28;20027;-92
2022/12/11 09:01:22;;;;;;;21.00;8.05;;;0.70;99.90;;;;;;4992723;28;20026;-93
2022/12/11 09:03:48;;;;;;;22.88;9.40;;;0.80;99.90;;;;;;4992677;28;20033;-92
2022/12/11 09:06:18;;;;;;;17.80;7.93;;;0.80;99.90;;;;;;4992635;28;20026;-94
2022/12/11 09:08:45;;;;;;;18.42;7.93;;;0.80;99.90;;;;;;4992659;28;20027;-94
2022/12/11 09:11:14;;;;;;;20.42;8.15;;;0.80;99.90;;;;;;4984559;28;20038;-93
2022/12/11 09:13:41;;;;;;;19.10;8.15;;;0.80;99.90;;;;;;4992509;28;20042;-93
2022/12/11 09:16:10;;;;;;;17.80;7.97;;;0.80;99.90;;;;;;4992228;28;20086;-93
2022/12/11 09:18:36;;;;;;;20.38;7.85;;;0.80;99.90;;;;;;4991601;28;20069;-94
2022/12/11 09:21:05;;;;;;;17.58;7.97;;;0.70;99.90;;;;;;4990309;28;20066;-93
2022/12/11 09:23:31;;;;;;;19.67;9.00;;;0.80;99.90;;;;;;4994947;28;20022;-93
2022/12/11 09:25:57;;;;;;;24.73;8.68;;;0.80;99.90;;;;;;4996516;28;20033;-94
2022/12/11 09:28:23;;;;;;;19.30;7.72;;;0.80;99.90;;;;;;4997058;28;20105;-94
2022/12/11 09:30:49;;;;;;;17.23;8.10;;;0.80;99.90;;;;;;4993619;28;20041;-94
2022/12/11 09:33:14;;;;;;;16.63;7.55;;;0.80;99.90;;;;;;4993581;28;20031;-94
2022/12/11 09:35:40;;;;;;;20.30;7.65;;;0.80;99.90;;;;;;4993227;28;20022;-95
2022/12/11 09:38:06;;;;;;;17.15;8.23;;;0.80;99.90;;;;;;4990365;28;20082;-93
2022/12/11 09:40:32;;;;;;;17.85;7.93;;;0.80;99.90;;;;;;4992741;28;20468;-93
2022/12/11 09:43:33;;;;;;;19.50;8.55;;;0.80;99.90;;;;;;4993374;28;20105;-93
2022/12/11 09:46:01;;;;;;;;;;;0.90;99.90;;;;;;4911563;29;20075;-91
2022/12/11 09:48:28;;;;;;;19.25;8.38;;;0.90;99.90;;;;;;4917651;29;19953;-94
2022/12/11 09:50:54;;;;;;;18.05;8.60;;;0.90;99.90;;;;;;4916815;29;20114;-93
2022/12/11 09:53:31;;;;;;;19.27;8.93;;;1.00;99.90;;;;;;4916834;29;20138;-94
2022/12/11 09:56:12;;;;;;;19.30;8.48;;;1.00;99.90;;;;;;4916415;29;20070;-93
2022/12/11 09:58:56;;;;;;;21.73;10.23;;;1.00;99.90;;;;;;4915351;29;20118;-94
2022/12/11 10:01:34;;;;;;;21.77;8.82;;;1.00;99.90;;;;;;4916864;29;20042;-94
2022/12/11 10:04:19;;;;;;;19.38;8.77;;;1.10;99.90;;;;;;4918152;29;20561;-95
2022/12/11 10:07:14;;;;;;;23.10;9.25;;;1.10;99.90;;;;;;4911849;29;20035;-93
2022/12/11 10:09:50;;;;;;;22.50;10.27;;;1.10;99.90;;;;;;4924455;29;20043;-93
2022/12/11 10:12:40;;;;;;;22.95;10.38;;;1.10;99.90;;;;;;4929187;29;20032;-95
2022/12/11 10:15:21;;;;;;;23.20;10.13;;;1.10;99.90;;;;;;4921748;29;20039;-93
2022/12/11 10:17:47;;;;;;;22.05;10.88;;;1.20;99.90;;;;;;4924082;29;20090;-94
2022/12/11 10:20:28;;;;;;;24.73;11.43;;;1.20;99.90;;;;;;4963738;28;20089;-89
2022/12/11 10:22:55;;;;;;;30.08;12.75;;;1.20;99.90;;;;;;4997847;28;20042;-94
2022/12/11 10:25:56;;;;;;;44.15;19.65;;;1.30;99.90;;;;;;5002322;28;20086;-93
2022/12/11 10:28:29;;;;;;;26.77;11.57;;;1.30;99.90;;;;;;4990642;28;20057;-93
2022/12/11 10:31:04;;;;;;;23.98;11.82;;;1.30;99.90;;;;;;4994938;28;20083;-92
2022/12/11 10:33:55;;;;;;;22.38;10.50;;;1.20;99.90;;;;;;5005104;28;20058;-94
2022/12/11 10:36:36;;;;;;;22.67;10.52;;;1.20;99.90;;;;;;4995460;28;20026;-93
2022/12/11 10:39:11;;;;;;;20.38;9.57;;;1.20;99.90;;;;;;4991830;28;20126;-95
2022/12/11 10:41:40;;;;;;;19.77;9.70;;;1.20;99.90;;;;;;4995172;28;20057;-94
2022/12/11 10:44:28;;;;;;;27.58;11.30;;;1.20;99.90;;;;;;5002514;28;20027;-91
2022/12/11 10:47:12;;;;;;;71.10;20.90;;;1.20;99.90;;;;;;5007765;28;20026;-89
2022/12/11 10:49:45;;;;;;;51.42;17.10;;;1.20;99.90;;;;;;5010413;28;20034;-92
2022/12/11 10:52:32;;;;;;;58.80;19.55;;;1.20;99.90;;;;;;5012833;28;20042;-93
2022/12/11 10:55:00;;;;;;;48.80;15.55;;;1.30;99.90;;;;;;5010358;28;20030;-94
2022/12/11 10:57:45;;;;;;;22.88;9.32;;;1.30;99.90;;;;;;5002105;28;20015;-91
2022/12/11 11:00:56;;;;;;;25.27;9.75;;;1.40;99.90;;;;;;5001154;28;20038;-95
2022/12/11 11:03:23;;;;;;;;;;;1.40;99.90;;;;;;4963199;29;20043;-91
2022/12/11 11:06:00;;;;;;;15.32;7.68;;;1.40;99.90;;;;;;4947411;29;19894;-94
2022/12/11 11:08:27;;;;;;;33.78;12.38;;;1.50;99.90;;;;;;4952414;29;20042;-88
2022/12/11 11:10:56;;;;;;;26.40;10.15;;;1.50;99.90;;;;;;4972657;29;20043;-91
2022/12/11 11:13:24;;;;;;;24.98;10.48;;;1.50;99.90;;;;;;4971765;29;20047;-92
2022/12/11 11:16:02;;;;;;;18.20;8.80;;;1.60;99.90;;;;;;4964533;29;20023;-93
2022/12/11 11:18:29;;;;;;;18.33;7.88;;;1.60;99.90;;;;;;4945326;29;20051;-92
2022/12/11 11:20:55;;;;;;;15.70;7.82;;;1.60;99.90;;;;;;4962675;29;20031;-96
2022/12/11 11:23:24;;;;;;;16.92;7.65;;;1.60;99.90;;;;;;4950894;29;20043;-94
2022/12/11 11:26:05;;;;;;;13.50;7.32;;;1.50;99.90;;;;;;4949139;29;20027;-92
2022/12/11 11:28:36;;;;;;;49.30;18.15;;;1.50;99.90;;;;;;4969836;28;20027;-96
2022/12/11 11:31:07;;;;;;;17.35;8.32;;;1.60;99.90;;;;;;4940676;29;20031;-95
2022/12/11 11:33:35;;;;;;;13.32;7.30;;;1.60;99.90;;;;;;4931028;29;20138;-95
2022/12/11 11:36:04;;;;;;;13.70;6.65;;;1.60;99.90;;;;;;4937659;28;20374;-93
2022/12/11 11:39:11;;;;;;;10.60;5.68;;;1.70;99.90;;;;;;4976197;28;20034;-94
2022/12/11 11:41:54;;;;;;;10.55;5.45;;;1.70;99.90;;;;;;4984749;28;20121;-92
2022/12/11 11:44:46;;;;;;;11.50;5.45;;;1.70;99.90;;;;;;4993271;28;20030;-94
2022/12/11 11:47:23;;;;;;;14.10;7.10;;;1.70;99.90;;;;;;4986351;28;20089;-95
2022/12/11 11:50:00;;;;;;;14.13;6.25;;;1.70;99.90;;;;;;4979149;28;20031;-93
2022/12/11 11:52:36;;;;;;;16.48;7.40;;;1.70;99.90;;;;;;4992111;28;20061;-94
2022/12/11 11:55:08;;;;;;;13.38;6.75;;;1.70;99.90;;;;;;4986853;28;20030;-93
2022/12/11 11:58:02;;;;;;;15.95;7.47;;;1.70;99.90;;;;;;4992455;28;20026;-93
2022/12/11 12:00:31;;;;;;;17.48;6.82;;;1.70;99.90;;;;;;4996261;28;20116;-94
2022/12/11 12:03:00;;;;;;;11.40;6.32;;;1.70;99.90;;;;;;4991751;28;20106;-94
2022/12/11 12:05:38;;;;;;;13.15;6.75;;;1.70;99.90;;;;;;4987478;28;20030;-94
2022/12/11 12:08:36;;;;;;;13.60;7.00;;;1.70;99.90;;;;;;4990529;28;20107;-94
2022/12/11 12:11:39;;;;;;;12.13;6.15;;;1.70;99.90;;;;;;4942134;28;20031;-95
2022/12/11 12:14:26;;;;;;;11.57;5.82;;;1.70;99.90;;;;;;4949610;29;20035;-94
2022/12/11 12:17:09;;;;;;;12.73;6.85;;;1.70;99.90;;;;;;4938684;29;20054;-92
2022/12/11 12:20:18;;;;;;;14.02;6.75;;;1.70;99.90;;;;;;4941418;29;20042;-94
2022/12/11 12:22:53;;;;;;;14.30;6.75;;;1.70;99.90;;;;;;4885862;29;20246;-95
2022/12/11 12:25:33;;;;;;;13.25;7.13;;;1.70;99.90;;;;;;4872124;29;20034;-93
2022/12/11 12:28:11;;;;;;;16.05;6.93;;;1.60;99.90;;;;;;4862880;29;20026;-94
2022/12/11 12:31:00;;;;;;;16.05;7.85;;;1.60;99.90;;;;;;4868595;29;20061;-93
2022/12/11 12:34:08;;;;;;;17.23;9.20;;;1.60;99.90;;;;;;4865616;29;20041;-94
2022/12/11 12:36:37;;;;;;;58.53;15.82;;;1.60;99.90;;;;;;4868878;29;20134;-94
2022/12/11 12:39:54;;;;;;;59.83;17.83;;;1.70;99.90;;;;;;4872724;29;20055;-96
2022/12/11 12:42:47;;;;;;;62.92;17.50;;;1.70;99.90;;;;;;4805575;29;20031;-93
2022/12/11 12:45:20;;;;;;;23.88;10.15;;;1.70;99.90;;;;;;4804615;29;20038;-94
2022/12/11 12:47:47;;;;;;;19.45;8.90;;;1.70;99.90;;;;;;4789453;29;20035;-93
2022/12/11 12:50:22;;;;;;;19.08;9.70;;;1.80;99.90;;;;;;4813182;29;20041;-94
2022/12/11 12:52:50;;;;;;;23.48;10.55;;;1.70;99.90;;;;;;4851764;29;20052;-93
2022/12/11 12:55:21;;;;;;;23.98;11.70;;;1.80;99.90;;;;;;4843952;29;20061;-93
2022/12/11 12:57:56;;;;;;;23.90;10.88;;;1.80;99.90;;;;;;4904038;29;20036;-92
2022/12/11 13:00:36;;;;;;;25.20;9.93;;;1.70;99.90;;;;;;4899664;29;20032;-94
2022/12/11 13:03:25;;;;;;;18.88;9.20;;;1.70;99.90;;;;;;4912414;29;20525;-93
2022/12/11 13:06:07;;;;;;;21.15;8.88;;;1.70;99.90;;;;;;4911981;29;20032;-93
2022/12/11 13:08:50;;;;;;;18.92;9.30;;;1.70;99.90;;;;;;4917253;29;20083;-94
2022/12/11 13:11:18;;;;;;;26.70;10.32;;;1.70;99.90;;;;;;4909661;29;20116;-94
2022/12/11 13:13:49;;;;;;;27.90;11.20;;;1.70;99.90;;;;;;4913272;29;20084;-95